sensor_id;sensor_type;location;lat;lon;timestamp;pressure;altitude;pressure_sealevel;temperature;humidity
28683;BME280;15862;43.062;25.626;2022-12-10T00:01:26;99325.94;;;11.06;100.00
28683;BME280;15862;43.062;25.626;2022-12-10T00:03:52;99329.66;;;11.52;100.00
28683;BME280;15862;43.062;25.626;2022-12-10T00:06:23;99322.28;;;11.96;100.00
28683;BME280;15862;43.062;25.626;2022-12-10T00:08:49;99322.94;;;12.45;100.00
28683;BME280;15862;43.062;25.626;2022-12-10T00:11:16;99319.88;;;12.69;100.00
28683;BME280;15862;43.062;25.626;2022-12-10T00:13:43;99324.97;;;12.32;100.00
28683;BME280;15862;43.062;25.626;2022-12-10T00:16:10;99322.97;;;11.98;100.00
28683;BME280;15862;43.062;25.626;2022-12-10T00:18:36;99304.44;;;11.44;100.00
28683;BME280;15862;43.062;25.626;2022-12-10T00:21:05;99324.75;;;11.10;100.00
28683;BME280;15862;43.062;25.626;2022-12-10T00:23:31;99317.28;;;10.86;100.00
28683;BME280;15862;43.062;25.626;2022-12-10T00:26:18;99316.31;;;10.78;100.00
28683;BME280;15862;43.062;25.626;2022-12-10T00:28:44;99303.19;;;10.70;100.00
28683;BME280;15862;43.062;25.626;2022-12-10T00:31:13;99309.22;;;10.50;100.00
28683;BME280;15862;43.062;25.626;2022-12-10T00:33:41;99310.53;;;10.45;100.00
28683;BME280;15862;43.062;25.626;2022-12-10T00:36:10;99315.75;;;10.54;100.00
28683;BME280;15862;43.062;25.626;2022-12-10T00:38:36;99320.91;;;10.54;100.00
28683;BME280;15862;43.062;25.626;2022-12-10T00:41:03;99321.47;;;10.58;100.00
28683;BME280;15862;43.062;25.626;2022-12-10T00:43:29;99312.97;;;10.87;100.00
28683;BME280;15862;43.062;25.626;2022-12-10T00:45:54;99314.47;;;10.89;100.00
28683;BME280;15862;43.062;25.626;2022-12-10T00:48:20;99303.47;;;11.75;100.00
28683;BME280;15862;43.062;25.626;2022-12-10T00:51:00;99278.88;;;12.55;100.00
28683;BME280;15862;43.062;25.626;2022-12-10T00:53:28;99281.47;;;13.00;100.00
28683;BME280;15862;43.062;25.626;2022-12-10T00:55:54;99290.31;;;13.34;100.00
28683;BME280;15862;43.062;25.626;2022-12-10T00:58:20;99282.28;;;13.55;100.00
28683;BME280;15862;43.062;25.626;2022-12-10T01:00:46;99288.09;;;13.83;100.00
28683;BME280;15862;43.062;25.626;2022-12-10T01:03:12;99285.94;;;13.79;100.00
28683;BME280;15862;43.062;25.626;2022-12-10T01:05:37;99281.63;;;13.70;100.00
28683;BME280;15862;43.062;25.626;2022-12-10T01:08:03;99281.03;;;13.76;100.00
28683;BME280;15862;43.062;25.626;2022-12-10T01:10:28;99275.31;;;13.90;100.00
28683;BME280;15862;43.062;25.626;2022-12-10T01:12:54;99264.78;;;14.09;100.00
28683;BME280;15862;43.062;25.626;2022-12-10T01:15:19;99276.13;;;14.08;100.00
28683;BME280;15862;43.062;25.626;2022-12-10T01:17:44;99277.78;;;14.09;100.00
28683;BME280;15862;43.062;25.626;2022-12-10T01:20:10;99282.75;;;14.20;100.00
28683;BME280;15862;43.062;25.626;2022-12-10T01:22:37;99284.34;;;14.38;100.00
28683;BME280;15862;43.062;25.626;2022-12-10T01:25:03;99275.19;;;14.52;100.00
28683;BME280;15862;43.062;25.626;2022-12-10T01:27:28;99259.91;;;14.49;100.00
28683;BME280;15862;43.062;25.626;2022-12-10T01:29:53;99276.41;;;14.65;100.00
28683;BME280;15862;43.062;25.626;2022-12-10T01:32:19;99273.66;;;14.66;100.00
28683;BME280;15862;43.062;25.626;2022-12-10T01:34:44;99272.84;;;14.41;100.00
28683;BME280;15862;43.062;25.626;2022-12-10T01:37:10;99268.84;;;14.29;100.00
28683;BME280;15862;43.062;25.626;2022-12-10T01:39:36;99274.06;;;14.29;100.00
28683;BME280;15862;43.062;25.626;2022-12-10T01:42:01;99268.59;;;14.40;100.00
28683;BME280;15862;43.062;25.626;2022-12-10T01:46:58;99243.03;;;14.52;100.00
28683;BME280;15862;43.062;25.626;2022-12-10T01:49:26;99259.28;;;14.54;100.00
28683;BME280;15862;43.062;25.626;2022-12-10T01:51:57;99267.03;;;14.47;100.00
28683;BME280;15862;43.062;25.626;2022-12-10T01:54:30;99261.75;;;14.31;100.00
28683;BME280;15862;43.062;25.626;2022-12-10T01:57:04;99269.09;;;14.43;100.00
28683;BME280;15862;43.062;25.626;2022-12-10T01:59:32;99261.53;;;14.50;100.00
28683;BME280;15862;43.062;25.626;2022-12-10T02:02:08;99261.47;;;14.42;100.00
28683;BME280;15862;43.062;25.626;2022-12-10T02:05:01;99265.22;;;14.04;100.00
28683;BME280;15862;43.062;25.626;2022-12-10T02:13:22;99249.25;;;13.03;100.00
28683;BME280;15862;43.062;25.626;2022-12-10T02:15:53;99216.13;;;12.61;100.00
28683;BME280;15862;43.062;25.626;2022-12-10T02:18:27;99255.94;;;12.60;100.00
28683;BME280;15862;43.062;25.626;2022-12-10T02:20:57;99252.59;;;12.31;100.00
28683;BME280;15862;43.062;25.626;2022-12-10T02:23:36;99265.03;;;11.99;100.00
28683;BME280;15862;43.062;25.626;2022-12-10T02:26:19;99262.59;;;11.88;100.00
28683;BME280;15862;43.062;25.626;2022-12-10T02:31:42;99250.88;;;11.65;100.00
28683;BME280;15862;43.062;25.626;2022-12-10T02:34:10;99254.69;;;11.71;100.00
28683;BME280;15862;43.062;25.626;2022-12-10T02:36:39;99272.50;;;12.30;100.00
28683;BME280;15862;43.062;25.626;2022-12-10T02:39:10;99261.44;;;12.84;100.00
28683;BME280;15862;43.062;25.626;2022-12-10T02:41:40;99262.81;;;12.97;100.00
28683;BME280;15862;43.062;25.626;2022-12-10T02:44:09;99258.78;;;13.02;100.00
28683;BME280;15862;43.062;25.626;2022-12-10T02:46:38;99260.19;;;13.24;100.00
28683;BME280;15862;43.062;25.626;2022-12-10T02:49:07;99254.09;;;13.42;100.00
28683;BME280;15862;43.062;25.626;2022-12-10T02:51:33;99250.38;;;13.62;100.00
28683;BME280;15862;43.062;25.626;2022-12-10T02:54:04;99240.00;;;13.79;100.00
28683;BME280;15862;43.062;25.626;2022-12-10T02:56:36;99246.75;;;13.90;100.00
28683;BME280;15862;43.062;25.626;2022-12-10T02:59:27;99237.09;;;14.00;100.00
28683;BME280;15862;43.062;25.626;2022-12-10T03:02:04;99236.22;;;14.09;100.00
28683;BME280;15862;43.062;25.626;2022-12-10T03:04:39;99218.13;;;14.17;100.00
28683;BME280;15862;43.062;25.626;2022-12-10T03:07:15;99223.81;;;14.20;100.00
28683;BME280;15862;43.062;25.626;2022-12-10T03:10:07;99226.97;;;14.32;100.00
28683;BME280;15862;43.062;25.626;2022-12-10T03:12:42;99225.13;;;14.24;100.00
28683;BME280;15862;43.062;25.626;2022-12-10T03:15:11;99227.16;;;14.13;100.00
28683;BME280;15862;43.062;25.626;2022-12-10T03:17:39;99233.47;;;13.93;100.00
28683;BME280;15862;43.062;25.626;2022-12-10T03:20:10;99223.31;;;13.82;100.00
28683;BME280;15862;43.062;25.626;2022-12-10T03:22:38;99217.53;;;13.53;100.00
28683;BME280;15862;43.062;25.626;2022-12-10T03:25:07;99200.88;;;13.11;100.00
28683;BME280;15862;43.062;25.626;2022-12-10T03:27:33;99208.88;;;13.00;100.00
28683;BME280;15862;43.062;25.626;2022-12-10T03:30:00;99204.44;;;12.84;100.00
28683;BME280;15862;43.062;25.626;2022-12-10T03:32:27;99198.09;;;12.69;100.00
28683;BME280;15862;43.062;25.626;2022-12-10T03:34:55;99195.84;;;12.47;100.00
28683;BME280;15862;43.062;25.626;2022-12-10T03:37:23;99199.19;;;12.20;100.00
28683;BME280;15862;43.062;25.626;2022-12-10T03:39:49;99209.44;;;12.13;100.00
28683;BME280;15862;43.062;25.626;2022-12-10T03:42:15;99207.97;;;12.01;100.00
28683;BME280;15862;43.062;25.626;2022-12-10T03:44:41;99202.66;;;11.93;100.00
28683;BME280;15862;43.062;25.626;2022-12-10T03:47:09;99214.09;;;11.90;100.00
28683;BME280;15862;43.062;25.626;2022-12-10T03:49:35;99200.19;;;11.82;100.00
28683;BME280;15862;43.062;25.626;2022-12-10T03:52:01;99201.59;;;11.76;100.00
28683;BME280;15862;43.062;25.626;2022-12-10T03:54:26;99199.53;;;11.70;100.00
28683;BME280;15862;43.062;25.626;2022-12-10T03:56:52;99198.97;;;11.39;100.00
28683;BME280;15862;43.062;25.626;2022-12-10T03:59:17;99211.13;;;11.66;100.00
28683;BME280;15862;43.062;25.626;2022-12-10T04:01:44;99207.03;;;11.73;100.00
28683;BME280;15862;43.062;25.626;2022-12-10T04:04:10;99202.13;;;11.61;100.00
28683;BME280;15862;43.062;25.626;2022-12-10T04:06:38;99205.13;;;11.85;100.00
28683;BME280;15862;43.062;25.626;2022-12-10T04:09:04;99192.97;;;12.04;100.00
28683;BME280;15862;43.062;25.626;2022-12-10T04:11:29;99179.69;;;12.26;100.00
28683;BME280;15862;43.062;25.626;2022-12-10T04:13:54;99180.25;;;12.83;100.00
28683;BME280;15862;43.062;25.626;2022-12-10T04:16:39;99188.13;;;13.00;100.00
28683;BME280;15862;43.062;25.626;2022-12-10T04:19:09;99195.19;;;13.08;100.00
28683;BME280;15862;43.062;25.626;2022-12-10T04:21:37;99193.00;;;13.03;100.00
28683;BME280;15862;43.062;25.626;2022-12-10T04:24:28;99184.81;;;13.25;100.00
28683;BME280;15862;43.062;25.626;2022-12-10T04:27:17;99151.78;;;13.45;100.00
28683;BME280;15862;43.062;25.626;2022-12-10T04:29:43;99197.78;;;13.95;100.00
28683;BME280;15862;43.062;25.626;2022-12-10T04:32:09;99202.50;;;13.99;100.00
28683;BME280;15862;43.062;25.626;2022-12-10T04:34:35;99196.84;;;13.61;100.00
28683;BME280;15862;43.062;25.626;2022-12-10T04:37:01;99185.78;;;13.24;100.00
28683;BME280;15862;43.062;25.626;2022-12-10T04:39:27;99193.34;;;12.91;100.00
28683;BME280;15862;43.062;25.626;2022-12-10T04:41:53;99197.56;;;12.65;100.00
28683;BME280;15862;43.062;25.626;2022-12-10T04:44:19;99199.53;;;12.44;100.00
28683;BME280;15862;43.062;25.626;2022-12-10T04:46:45;99206.81;;;12.22;100.00
28683;BME280;15862;43.062;25.626;2022-12-10T04:49:11;99203.47;;;12.03;100.00
28683;BME280;15862;43.062;25.626;2022-12-10T04:51:37;99201.03;;;11.92;100.00
28683;BME280;15862;43.062;25.626;2022-12-10T04:54:02;99206.47;;;11.51;100.00
28683;BME280;15862;43.062;25.626;2022-12-10T04:56:28;99204.94;;;11.39;100.00
28683;BME280;15862;43.062;25.626;2022-12-10T04:58:57;99202.97;;;11.03;100.00
28683;BME280;15862;43.062;25.626;2022-12-10T05:01:23;99196.44;;;10.90;100.00
28683;BME280;15862;43.062;25.626;2022-12-10T05:03:49;99216.66;;;10.85;100.00
28683;BME280;15862;43.062;25.626;2022-12-10T05:06:16;99195.16;;;10.75;100.00
28683;BME280;15862;43.062;25.626;2022-12-10T05:08:42;99217.72;;;10.73;100.00
28683;BME280;15862;43.062;25.626;2022-12-10T05:11:14;99220.66;;;10.59;100.00
28683;BME280;15862;43.062;25.626;2022-12-10T05:13:40;99225.81;;;10.59;100.00
28683;BME280;15862;43.062;25.626;2022-12-10T05:16:08;99227.69;;;10.57;100.00
28683;BME280;15862;43.062;25.626;2022-12-10T05:18:34;99231.22;;;10.56;100.00
28683;BME280;15862;43.062;25.626;2022-12-10T05:21:01;99210.34;;;10.39;100.00
28683;BME280;15862;43.062;25.626;2022-12-10T05:23:27;99223.31;;;10.48;100.00
28683;BME280;15862;43.062;25.626;2022-12-10T05:26:18;99225.47;;;10.43;100.00
28683;BME280;15862;43.062;25.626;2022-12-10T05:28:55;99231.09;;;10.28;100.00
28683;BME280;15862;43.062;25.626;2022-12-10T05:31:23;99241.53;;;10.26;100.00
28683;BME280;15862;43.062;25.626;2022-12-10T05:33:49;99247.72;;;10.35;100.00
28683;BME280;15862;43.062;25.626;2022-12-10T05:36:17;99238.88;;;10.37;100.00
28683;BME280;15862;43.062;25.626;2022-12-10T05:38:43;99255.13;;;10.49;100.00
28683;BME280;15862;43.062;25.626;2022-12-10T05:41:13;99262.78;;;10.60;100.00
28683;BME280;15862;43.062;25.626;2022-12-10T05:43:39;99263.84;;;10.57;100.00
28683;BME280;15862;43.062;25.626;2022-12-10T05:46:09;99258.69;;;10.57;100.00
28683;BME280;15862;43.062;25.626;2022-12-10T05:48:35;99254.22;;;10.59;100.00
28683;BME280;15862;43.062;25.626;2022-12-10T05:51:10;99240.19;;;10.52;100.00
28683;BME280;15862;43.062;25.626;2022-12-10T05:53:37;99261.44;;;10.65;100.00
28683;BME280;15862;43.062;25.626;2022-12-10T05:56:07;99262.53;;;10.63;100.00
28683;BME280;15862;43.062;25.626;2022-12-10T05:58:33;99253.69;;;10.65;100.00
28683;BME280;15862;43.062;25.626;2022-12-10T06:00:59;99265.28;;;10.70;100.00
28683;BME280;15862;43.062;25.626;2022-12-10T06:03:26;99263.09;;;10.66;100.00
28683;BME280;15862;43.062;25.626;2022-12-10T06:05:52;99261.44;;;10.65;100.00
28683;BME280;15862;43.062;25.626;2022-12-10T06:08:18;99262.56;;;10.72;100.00
28683;BME280;15862;43.062;25.626;2022-12-10T06:10:44;99257.41;;;10.72;100.00
28683;BME280;15862;43.062;25.626;2022-12-10T06:13:09;99243.38;;;10.65;100.00
28683;BME280;15862;43.062;25.626;2022-12-10T06:15:38;99263.38;;;10.72;100.00
28683;BME280;15862;43.062;25.626;2022-12-10T06:18:04;99266.38;;;10.68;100.00
28683;BME280;15862;43.062;25.626;2022-12-10T06:20:29;99263.91;;;10.66;100.00
28683;BME280;15862;43.062;25.626;2022-12-10T06:22:55;99258.63;;;10.68;100.00
28683;BME280;15862;43.062;25.626;2022-12-10T06:25:20;99255.75;;;10.71;100.00
28683;BME280;15862;43.062;25.626;2022-12-10T06:27:46;99268.28;;;10.75;100.00
28683;BME280;15862;43.062;25.626;2022-12-10T06:30:11;99260.53;;;10.75;100.00
28683;BME280;15862;43.062;25.626;2022-12-10T06:32:37;99274.63;;;10.92;100.00
28683;BME280;15862;43.062;25.626;2022-12-10T06:35:03;99271.25;;;11.01;100.00
28683;BME280;15862;43.062;25.626;2022-12-10T06:37:28;99272.56;;;10.86;100.00
28683;BME280;15862;43.062;25.626;2022-12-10T06:39:54;99269.97;;;10.86;100.00
28683;BME280;15862;43.062;25.626;2022-12-10T06:42:20;99279.00;;;11.01;100.00
28683;BME280;15862;43.062;25.626;2022-12-10T06:44:46;99285.88;;;11.21;100.00
28683;BME280;15862;43.062;25.626;2022-12-10T06:47:12;99272.84;;;11.32;100.00
28683;BME280;15862;43.062;25.626;2022-12-10T06:49:38;99268.44;;;11.52;100.00
28683;BME280;15862;43.062;25.626;2022-12-10T06:52:04;99266.94;;;11.78;100.00
28683;BME280;15862;43.062;25.626;2022-12-10T06:54:30;99258.47;;;12.14;100.00
28683;BME280;15862;43.062;25.626;2022-12-10T06:56:56;99240.13;;;12.63;100.00
28683;BME280;15862;43.062;25.626;2022-12-10T06:59:22;99231.94;;;13.21;100.00
28683;BME280;15862;43.062;25.626;2022-12-10T07:01:47;99221.06;;;14.04;100.00
28683;BME280;15862;43.062;25.626;2022-12-10T07:04:13;99198.03;;;14.27;100.00
28683;BME280;15862;43.062;25.626;2022-12-10T07:06:38;99207.91;;;14.49;100.00
28683;BME280;15862;43.062;25.626;2022-12-10T07:09:04;99203.00;;;14.71;100.00
28683;BME280;15862;43.062;25.626;2022-12-10T07:11:29;99205.63;;;14.79;100.00
28683;BME280;15862;43.062;25.626;2022-12-10T07:13:58;99205.25;;;15.07;100.00
28683;BME280;15862;43.062;25.626;2022-12-10T07:16:26;99206.06;;;15.81;100.00
28683;BME280;15862;43.062;25.626;2022-12-10T07:18:54;99209.31;;;16.14;100.00
28683;BME280;15862;43.062;25.626;2022-12-10T07:23:46;99191.81;;;16.55;100.00
28683;BME280;15862;43.062;25.626;2022-12-10T07:26:11;99197.72;;;16.17;100.00
28683;BME280;15862;43.062;25.626;2022-12-10T07:28:37;99195.47;;;16.06;100.00
28683;BME280;15862;43.062;25.626;2022-12-10T07:31:04;99197.28;;;15.82;100.00
28683;BME280;15862;43.062;25.626;2022-12-10T07:33:29;99195.31;;;15.52;100.00
28683;BME280;15862;43.062;25.626;2022-12-10T07:35:55;99196.25;;;15.43;100.00
28683;BME280;15862;43.062;25.626;2022-12-10T07:38:22;99182.75;;;15.31;100.00
28683;BME280;15862;43.062;25.626;2022-12-10T07:40:48;99198.06;;;15.42;100.00
28683;BME280;15862;43.062;25.626;2022-12-10T07:43:14;99194.50;;;15.51;100.00
28683;BME280;15862;43.062;25.626;2022-12-10T07:45:39;99185.19;;;15.49;100.00
28683;BME280;15862;43.062;25.626;2022-12-10T07:48:05;99191.41;;;15.72;100.00
28683;BME280;15862;43.062;25.626;2022-12-10T07:50:30;99191.25;;;15.97;100.00
28683;BME280;15862;43.062;25.626;2022-12-10T07:52:56;99186.69;;;15.91;100.00
28683;BME280;15862;43.062;25.626;2022-12-10T07:55:21;99191.72;;;15.85;100.00
28683;BME280;15862;43.062;25.626;2022-12-10T07:57:47;99191.91;;;15.75;100.00
28683;BME280;15862;43.062;25.626;2022-12-10T08:00:12;99191.72;;;15.85;100.00
28683;BME280;15862;43.062;25.626;2022-12-10T08:02:38;99187.66;;;16.06;100.00
28683;BME280;15862;43.062;25.626;2022-12-10T08:05:03;99188.63;;;16.21;100.00
28683;BME280;15862;43.062;25.626;2022-12-10T08:07:29;99164.66;;;16.41;100.00
28683;BME280;15862;43.062;25.626;2022-12-10T08:09:54;99164.94;;;16.54;100.00
28683;BME280;15862;43.062;25.626;2022-12-10T08:12:20;99163.31;;;16.53;100.00
28683;BME280;15862;43.062;25.626;2022-12-10T08:14:45;99162.63;;;16.59;100.00
28683;BME280;15862;43.062;25.626;2022-12-10T08:17:11;99161.53;;;16.92;100.00
28683;BME280;15862;43.062;25.626;2022-12-10T08:19:36;99159.41;;;17.48;100.00
28683;BME280;15862;43.062;25.626;2022-12-10T08:22:01;99159.56;;;18.57;100.00
28683;BME280;15862;43.062;25.626;2022-12-10T08:24:27;99134.81;;;18.88;100.00
28683;BME280;15862;43.062;25.626;2022-12-10T08:26:52;99155.53;;;19.04;97.92
28683;BME280;15862;43.062;25.626;2022-12-10T08:29:18;99159.06;;;19.25;96.76
28683;BME280;15862;43.062;25.626;2022-12-10T08:31:43;99155.19;;;19.42;94.60
28683;BME280;15862;43.062;25.626;2022-12-10T08:34:14;99145.84;;;19.54;94.95
28683;BME280;15862;43.062;25.626;2022-12-10T08:36:39;99132.28;;;19.72;93.00
28683;BME280;15862;43.062;25.626;2022-12-10T08:39:05;99141.22;;;19.98;91.53
28683;BME280;15862;43.062;25.626;2022-12-10T08:41:30;99138.81;;;20.03;86.96
28683;BME280;15862;43.062;25.626;2022-12-10T08:43:56;99135.56;;;20.28;80.80
28683;BME280;15862;43.062;25.626;2022-12-10T08:46:21;99135.78;;;20.73;82.80
28683;BME280;15862;43.062;25.626;2022-12-10T08:48:48;99111.16;;;21.28;70.51
28683;BME280;15862;43.062;25.626;2022-12-10T08:51:16;99133.84;;;22.45;65.80
28683;BME280;15862;43.062;25.626;2022-12-10T08:53:42;99130.88;;;23.91;57.98
28683;BME280;15862;43.062;25.626;2022-12-10T08:56:07;99131.34;;;25.60;49.74
28683;BME280;15862;43.062;25.626;2022-12-10T08:58:33;99125.19;;;25.48;47.25
28683;BME280;15862;43.062;25.626;2022-12-10T09:00:59;99099.94;;;25.23;47.11
28683;BME280;15862;43.062;25.626;2022-12-10T09:03:26;99092.84;;;25.35;46.98
28683;BME280;15862;43.062;25.626;2022-12-10T09:05:51;99096.50;;;25.04;49.10
28683;BME280;15862;43.062;25.626;2022-12-10T09:08:17;99091.88;;;25.70;46.54
28683;BME280;15862;43.062;25.626;2022-12-10T09:10:43;99081.03;;;25.48;45.12
28683;BME280;15862;43.062;25.626;2022-12-10T09:13:09;99078.41;;;26.51;44.42
28683;BME280;15862;43.062;25.626;2022-12-10T09:15:34;99079.13;;;29.09;38.66
28683;BME280;15862;43.062;25.626;2022-12-10T09:18:00;99074.88;;;31.14;35.76
28683;BME280;15862;43.062;25.626;2022-12-10T09:20:25;99057.84;;;32.83;33.24
28683;BME280;15862;43.062;25.626;2022-12-10T09:22:51;99051.84;;;34.52;30.36
28683;BME280;15862;43.062;25.626;2022-12-10T09:25:16;99056.19;;;33.68;29.13
28683;BME280;15862;43.062;25.626;2022-12-10T09:27:43;99044.13;;;30.92;33.10
28683;BME280;15862;43.062;25.626;2022-12-10T09:30:10;99043.00;;;29.18;36.58
28683;BME280;15862;43.062;25.626;2022-12-10T09:32:36;99029.31;;;28.19;38.20
28683;BME280;15862;43.062;25.626;2022-12-10T09:35:02;99024.69;;;29.89;37.03
28683;BME280;15862;43.062;25.626;2022-12-10T09:37:28;99013.56;;;32.42;32.57
28683;BME280;15862;43.062;25.626;2022-12-10T09:39:53;99018.91;;;33.72;30.94
28683;BME280;15862;43.062;25.626;2022-12-10T09:47:21;98996.19;;;35.31;27.92
28683;BME280;15862;43.062;25.626;2022-12-10T09:50:04;98990.78;;;35.95;27.23
28683;BME280;15862;43.062;25.626;2022-12-10T09:52:39;98973.81;;;37.41;25.89
28683;BME280;15862;43.062;25.626;2022-12-10T09:55:18;98961.44;;;36.61;26.30
28683;BME280;15862;43.062;25.626;2022-12-10T09:57:53;98949.28;;;36.36;25.88
28683;BME280;15862;43.062;25.626;2022-12-10T10:00:46;98951.22;;;35.18;28.31
28683;BME280;15862;43.062;25.626;2022-12-10T10:03:14;98937.16;;;34.90;27.26
28683;BME280;15862;43.062;25.626;2022-12-10T10:05:43;98930.69;;;34.17;28.55
28683;BME280;15862;43.062;25.626;2022-12-10T10:08:31;98932.44;;;34.45;29.45
28683;BME280;15862;43.062;25.626;2022-12-10T10:10:59;98919.69;;;34.37;28.13
28683;BME280;15862;43.062;25.626;2022-12-10T10:13:45;98925.88;;;35.24;27.91
28683;BME280;15862;43.062;25.626;2022-12-10T10:16:20;98912.00;;;35.49;27.35
28683;BME280;15862;43.062;25.626;2022-12-10T10:18:58;98917.06;;;35.06;27.18
28683;BME280;15862;43.062;25.626;2022-12-10T10:21:32;98919.94;;;34.77;27.38
28683;BME280;15862;43.062;25.626;2022-12-10T10:23:59;98899.59;;;33.41;27.86
28683;BME280;15862;43.062;25.626;2022-12-10T10:26:25;98907.72;;;33.03;29.34
28683;BME280;15862;43.062;25.626;2022-12-10T10:29:02;98901.69;;;34.19;27.98
28683;BME280;15862;43.062;25.626;2022-12-10T10:31:32;98899.50;;;34.95;27.52
28683;BME280;15862;43.062;25.626;2022-12-10T10:34:01;98881.66;;;34.67;26.82
28683;BME280;15862;43.062;25.626;2022-12-10T10:36:37;98879.34;;;34.05;27.92
28683;BME280;15862;43.062;25.626;2022-12-10T10:41:44;98866.59;;;33.92;27.76
28683;BME280;15862;43.062;25.626;2022-12-10T10:44:16;98870.75;;;34.03;28.16
28683;BME280;15862;43.062;25.626;2022-12-10T10:46:51;98869.03;;;34.86;27.38
28683;BME280;15862;43.062;25.626;2022-12-10T10:51:51;98861.16;;;33.27;27.95
28683;BME280;15862;43.062;25.626;2022-12-10T10:57:32;98875.00;;;31.76;30.11
28683;BME280;15862;43.062;25.626;2022-12-10T11:00:02;98855.13;;;31.14;30.01
28683;BME280;15862;43.062;25.626;2022-12-10T11:03:06;98862.59;;;30.92;30.92
28683;BME280;15862;43.062;25.626;2022-12-10T11:05:33;98862.81;;;32.18;29.01
28683;BME280;15862;43.062;25.626;2022-12-10T11:10:28;98851.09;;;31.26;30.62
28683;BME280;15862;43.062;25.626;2022-12-10T11:15:40;98845.00;;;31.01;31.19
28683;BME280;15862;43.062;25.626;2022-12-10T11:18:35;98848.53;;;29.91;31.48
28683;BME280;15862;43.062;25.626;2022-12-10T11:21:15;98845.81;;;29.76;32.64
28683;BME280;15862;43.062;25.626;2022-12-10T11:23:47;98831.53;;;29.41;32.88
28683;BME280;15862;43.062;25.626;2022-12-10T11:35:01;98823.59;;;27.08;35.58
28683;BME280;15862;43.062;25.626;2022-12-10T11:37:35;98821.66;;;26.38;36.83
28683;BME280;15862;43.062;25.626;2022-12-10T11:40:14;98824.69;;;26.47;37.76
28683;BME280;15862;43.062;25.626;2022-12-10T11:48:50;98814.72;;;26.54;36.67
28683;BME280;15862;43.062;25.626;2022-12-10T11:56:54;98818.53;;;25.24;39.72
28683;BME280;15862;43.062;25.626;2022-12-10T11:59:26;98813.16;;;25.19;39.76
28683;BME280;15862;43.062;25.626;2022-12-10T12:11:06;98795.66;;;24.20;42.15
28683;BME280;15862;43.062;25.626;2022-12-10T12:13:45;98770.19;;;24.25;41.75
28683;BME280;15862;43.062;25.626;2022-12-10T12:16:20;98791.25;;;24.43;41.62
28683;BME280;15862;43.062;25.626;2022-12-10T12:19:05;98786.81;;;24.67;41.69
28683;BME280;15862;43.062;25.626;2022-12-10T12:21:35;98779.31;;;24.52;41.66
28683;BME280;15862;43.062;25.626;2022-12-10T12:24:20;98778.50;;;23.99;42.91
28683;BME280;15862;43.062;25.626;2022-12-10T12:30:13;98785.84;;;23.32;44.34
28683;BME280;15862;43.062;25.626;2022-12-10T12:35:14;98777.03;;;22.85;45.41
28683;BME280;15862;43.062;25.626;2022-12-10T12:37:47;98766.34;;;22.55;45.95
28683;BME280;15862;43.062;25.626;2022-12-10T12:40:28;98750.66;;;22.12;47.28
28683;BME280;15862;43.062;25.626;2022-12-10T12:45:24;98768.53;;;21.66;49.52
28683;BME280;15862;43.062;25.626;2022-12-10T12:48:26;98770.81;;;21.50;51.34
28683;BME280;15862;43.062;25.626;2022-12-10T12:51:13;98758.19;;;21.27;53.58
28683;BME280;15862;43.062;25.626;2022-12-10T12:53:41;98776.53;;;21.40;53.22
28683;BME280;15862;43.062;25.626;2022-12-10T12:57:06;98781.38;;;21.43;52.66
28683;BME280;15862;43.062;25.626;2022-12-10T12:59:36;98779.00;;;21.29;53.21
28683;BME280;15862;43.062;25.626;2022-12-10T13:02:29;98777.00;;;21.24;53.41
28683;BME280;15862;43.062;25.626;2022-12-10T13:05:02;98776.88;;;21.06;53.55
28683;BME280;15862;43.062;25.626;2022-12-10T13:07:30;98784.53;;;21.14;54.43
28683;BME280;15862;43.062;25.626;2022-12-10T13:28:47;98762.75;;;20.43;59.10
28683;BME280;15862;43.062;25.626;2022-12-10T13:33:53;98757.94;;;20.33;60.92
28683;BME280;15862;43.062;25.626;2022-12-10T13:39:29;98758.72;;;20.08;62.47
28683;BME280;15862;43.062;25.626;2022-12-10T13:49:58;98765.53;;;19.83;65.38
28683;BME280;15862;43.062;25.626;2022-12-10T13:55:38;98768.22;;;19.49;68.27
28683;BME280;15862;43.062;25.626;2022-12-10T14:06:18;98756.34;;;19.07;73.84
28683;BME280;15862;43.062;25.626;2022-12-10T14:09:05;98744.13;;;18.86;75.28
28683;BME280;15862;43.062;25.626;2022-12-10T14:11:35;98746.53;;;18.81;75.97
28683;BME280;15862;43.062;25.626;2022-12-10T14:14:04;98760.91;;;18.64;77.66
28683;BME280;15862;43.062;25.626;2022-12-10T14:16:32;98749.22;;;18.60;78.02
28683;BME280;15862;43.062;25.626;2022-12-10T14:19:04;98761.72;;;18.65;77.62
28683;BME280;15862;43.062;25.626;2022-12-10T14:21:33;98746.03;;;18.65;77.95
28683;BME280;15862;43.062;25.626;2022-12-10T14:23:59;98735.50;;;18.52;79.11
28683;BME280;15862;43.062;25.626;2022-12-10T14:26:33;98742.84;;;18.42;80.31
28683;BME280;15862;43.062;25.626;2022-12-10T14:31:35;98751.59;;;18.28;82.00
28683;BME280;15862;43.062;25.626;2022-12-10T14:34:07;98751.16;;;18.25;81.98
28683;BME280;15862;43.062;25.626;2022-12-10T14:36:53;98742.88;;;18.21;82.05
28683;BME280;15862;43.062;25.626;2022-12-10T14:39:24;98738.50;;;18.07;83.03
28683;BME280;15862;43.062;25.626;2022-12-10T14:41:51;98729.81;;;18.00;83.28
28683;BME280;15862;43.062;25.626;2022-12-10T14:44:18;98720.59;;;18.04;83.20
28683;BME280;15862;43.062;25.626;2022-12-10T14:46:46;98705.03;;;17.96;84.24
28683;BME280;15862;43.062;25.626;2022-12-10T14:49:20;98716.66;;;17.94;84.02
28683;BME280;15862;43.062;25.626;2022-12-10T14:51:46;98707.09;;;18.01;83.77